Weather observations for the past three days for
Corinth
Imperial (Metric)
Date Time (cdt) Wind (mph) Vis. (mi.) Weather Sky Cond. Temperature (ºF) Relative Humidity Wind Chill (°F) Heat Index (°F) Pressure Precipitation (in)
Air Dwpt 6 hour altimeter (in) sea level (mb) 1 hr 3 hr 6 hr
Max. Min.
10 10:55 Vrbl 3 10.00 A Few Clouds FEW026 78.8 68 70% 81 30.04 0.0
10 10:35 Vrbl 5 10.00 Fair CLR 77 69.8 79% 79 30.03 0.0
10 10:15 SE 5 10.00 Fair CLR 75.2 68 78% 76 30.03 0.0
10 09:55 Calm 10.00 Fair CLR 73.4 68 83% 30.04 0.0
10 09:35 SE 5 10.00 Fair CLR 71.6 68 88% 30.03 0.0
10 09:15 E 5 10.00 Fair CLR 69.8 68 94% 30.03 0.0
10 08:55 Calm 10.00 Fair CLR 68 66.2 94% 30.03 0.0
10 08:35 Calm 10.00 Fair CLR 66.2 66.2 100% 30.02 0.0
10 08:15 Calm 10.00 Fair CLR 66.2 66.2 100% 30.02 0.0
10 07:55 SE 5 10.00 Fair CLR 64.4 64.4 100% 30.02 0.0
10 07:35 SE 5 9.00 Fair CLR 62.6 62.6 100% 30.02 0.0
10 07:15 S 7 7.00 A Few Clouds FEW002 60.8 60.8 100% 30.01 0.0
10 06:55 Calm 0.15 Fog OVC002 59 59 100% 30.01 0.0
10 06:35 S 3 0.15 Fog OVC002 57.2 57.2 100% 30 0.0
10 06:15 Calm 0.15 Fog OVC002 57.2 57.2 100% 29.98 0.0
10 05:55 Calm 0.15 Fog OVC002 57.2 57.2 100% 29.97 0.0
10 05:35 Calm 0.15 Fog OVC002 57.2 57.2 100% 29.97 0.0
10 05:15 Calm 0.15 Fog OVC001 59 59 100% 29.97 0.0
10 04:55 Calm 0.25 Fog BKN001 59 59 100% 29.96 0.0
10 04:35 Calm 0.25 Fog OVC002 59 59 100% 29.95 0.0
10 04:15 Calm 0.25 Fog BKN002 59 59 100% 29.95 0.0
10 03:55 Calm 0.50 Fog VV005 60.8 60.8 100% 29.94 0.0
10 03:35 Calm 3.00 Fog/Mist CLR 60.8 60.8 100% 29.95 0.0
10 03:15 Calm 0.50 Fog/Mist VV005 60.8 60.8 100% 29.94 0.0
10 02:55 Calm 1.25 Fog/Mist CLR 60.8 60.8 100% 29.94 0.0
10 02:35 Calm 0.15 Fog VV000 60.8 60.8 100% 29.94 0.0
10 02:15 Calm 1.50 Fog/Mist CLR 62.6 62.6 100% 29.93 0.0
10 01:55 Calm 10.00 Fair CLR 62.6 62.6 100% 29.93 0.0
10 01:35 SE 3 8.00 Fair CLR 60.8 60.8 100% 29.93 0.0
10 01:15 SE 6 10.00 Fair CLR 60.8 60.8 100% 29.93 0.0
10 00:55 Calm 10.00 Fair CLR 62.6 62.6 100% 29.93 0.0
10 00:35 Calm 10.00 Fair CLR 62.6 62.6 100% 29.93 0.0
10 00:15 Calm 10.00 Fair CLR 64.4 62.6 94% 29.93 0.0
09 23:55 S 5 10.00 Fair CLR 64.4 64.4 100% 29.93 0.0
09 23:35 S 6 10.00 Fair CLR 64.4 62.6 94% 29.93 0.0
09 23:15 S 6 10.00 Fair CLR 64.4 62.6 94% 29.93 0.0
09 22:55 S 6 10.00 Fair CLR 64.4 62.6 94% 29.93 0.0
09 22:35 S 6 10.00 Fair CLR 66.2 64.4 94% 29.94 0.0
09 22:15 S 3 10.00 Fair CLR 64.4 62.6 94% 29.94 0.0
09 21:55 Calm 10.00 Fair CLR 64.4 62.6 94% 29.93 0.0
09 21:35 Calm 10.00 Fair CLR 64.4 62.6 94% 29.92 0.0
09 21:15 S 3 10.00 Fair CLR 64.4 60.8 88% 29.91 0.0
09 20:55 Calm 10.00 Fair CLR 66.2 62.6 88% 29.9 0.0
09 20:35 Calm 10.00 Fair CLR 68 62.6 83% 29.88 0.0
09 20:15 Calm 10.00 Fair CLR 69.8 62.6 78% 29.87 0.0
09 19:55 Calm 10.00 Fair CLR 71.6 62.6 73% 29.86 0.0
09 19:35 Calm 10.00 Fair CLR 75.2 62.6 65% 77 29.85 0.0
09 19:15 Calm 10.00 Fair CLR 77 62.6 61% 79 29.85 0.0
09 18:55 SE 5 10.00 Fair CLR 78.8 60.8 54% 80 29.85 0.0
09 18:35 Calm 10.00 Fair CLR 78.8 55.4 45% 79 29.85 0.0
09 18:15 N 6 10.00 Fair CLR 80.6 53.6 39% 80 29.85 0.0
09 17:55 N 5 10.00 Fair CLR 80.6 53.6 39% 80 29.84 0.0
09 17:35 NE 6 10.00 Fair CLR 82.4 53.6 37% 81 29.84 0.0
09 17:15 N 6 10.00 Fair CLR 80.6 53.6 39% 80 29.83 0.0
09 16:55 Vrbl 3 10.00 Fair CLR 82.4 51.8 35% 81 29.83 0.0
09 16:35 N 3 10.00 Fair CLR 82.4 53.6 37% 81 29.84 0.0
09 16:15 Vrbl 7 G 15 10.00 A Few Clouds FEW070 82.4 51.8 35% 81 29.84 0.0
09 15:55 Calm 10.00 Fair CLR 82.4 51.8 35% 81 29.84 0.0
09 15:35 Calm 10.00 A Few Clouds FEW065 80.6 55.4 42% 81 29.85 0.0
09 15:15 Vrbl 7 10.00 A Few Clouds FEW070 80.6 55.4 42% 81 29.85 0.0
09 14:55 N 6 10.00 Fair CLR 80.6 57.2 45% 81 29.85 0.0
09 14:35 Calm 10.00 A Few Clouds FEW060 80.6 57.2 45% 81 29.85 0.0
09 14:15 Calm 10.00 A Few Clouds FEW055 FEW070 78.8 57.2 48% 80 29.85 0.0
09 13:55 Vrbl 8 G 16 10.00 A Few Clouds FEW055 FEW070 80.6 59 48% 81 29.85 0.0
09 13:35 Vrbl 5 G 12 10.00 A Few Clouds FEW055 78.8 57.2 48% 80 29.86 0.0
09 13:15 Vrbl 5 10.00 Fair CLR 78.8 57.2 48% 80 29.87 0.0
09 12:55 Calm 10.00 Fair CLR 77 57.2 51% 79 29.87 0.0
09 12:35 Calm 10.00 Fair CLR 77 57.2 51% 79 29.87 0.0
09 12:15 Vrbl 6 10.00 Fair CLR 77 59 54% 79 29.87 0.0
09 11:55 Calm 10.00 Fair CLR 75.2 60.8 61% 77 29.87 0.0
09 11:35 Vrbl 3 10.00 A Few Clouds FEW037 75.2 60.8 61% 77 29.88 0.0
09 11:15 SW 6 10.00 Fair CLR 73.4 60.8 65% 29.88 0.0
09 10:55 Calm 10.00 Fair CLR 73.4 60.8 65% 29.88 0.0
09 10:35 NW 7 10.00 Fair CLR 71.6 62.6 73% 29.87 0.0
09 10:15 W 3 G 12 10.00 Fair CLR 69.8 60.8 73% 29.86 0.0
09 09:55 Vrbl 5 10.00 Fair CLR 69.8 60.8 73% 29.86 0.0
09 09:35 W 6 10.00 Fair CLR 68 62.6 83% 29.87 0.0
09 09:15 Vrbl 3 10.00 Fair CLR 66.2 60.8 83% 29.87 0.0
09 08:55 Vrbl 5 10.00 Fair CLR 64.4 60.8 88% 29.86 0.0
09 08:35 SW 7 10.00 A Few Clouds FEW009 62.6 60.8 94% 29.86 0.0
09 08:15 SW 7 10.00 Mostly Cloudy BKN007 60.8 60.8 100% 29.86 0.0
09 07:55 S 3 10.00 Overcast OVC006 59 59 100% 29.87 0.0
09 07:35 S 5 10.00 Overcast OVC004 59 59 100% 29.87 0.0
09 07:15 S 5 10.00 Overcast OVC004 57.2 57.2 100% 29.86 0.0
09 06:55 Calm 9.00 Mostly Cloudy BKN005 55.4 55.4 100% 29.86 0.0
09 06:35 Calm 10.00 Fair CLR 55.4 55.4 100% 29.86 0.0
09 06:15 Calm 10.00 Fair CLR 53.6 53.6 100% 29.85 0.0
09 05:55 Calm 10.00 Fair CLR 53.6 53.6 100% 29.84 0.0
09 05:35 Calm 10.00 Fair CLR 53.6 53.6 100% 29.84 0.0
09 05:15 S 5 10.00 Fair CLR 53.6 53.6 100% 29.83 0.0
09 04:55 Calm 10.00 A Few Clouds FEW120 55.4 55.4 100% 29.84 0.0
09 04:35 Calm 10.00 Partly Cloudy SCT120 55.4 55.4 100% 29.84 0.0
09 04:15 Calm 10.00 Fair CLR 55.4 55.4 100% 29.84 0.0
09 03:55 S 5 10.00 Fair CLR 53.6 53.6 100% 29.84 0.0
09 03:35 S 7 10.00 Fair CLR 53.6 53.6 100% 29.83 0.0
09 03:15 Vrbl 5 10.00 Fair CLR 55.4 55.4 100% 29.84 0.0
09 02:55 S 5 10.00 Fair CLR 55.4 55.4 100% 29.85 0.0
09 02:35 S 6 10.00 Fair CLR 55.4 55.4 100% 29.83 0.0
09 02:15 SE 6 10.00 Fair CLR 53.6 53.6 100% 29.82 0.0
09 01:55 SE 7 10.00 Fair CLR 53.6 53.6 100% 29.84 0.0
09 01:30 S 5 10.00 Fair CLR 55.4 53.6 94% 29.86 0.0
09 01:15 Calm 10.00 Fair CLR 55.4 53.6 94% 29.87 0.0
09 00:55 S 5 10.00 Fair CLR 55.4 53.6 94% 29.87 0.0
09 00:35 S 6 10.00 Fair CLR 57.2 53.6 88% 29.87 0.0
09 00:15 S 5 10.00 Fair CLR 57.2 53.6 88% 29.88 0.0
08 23:55 S 7 10.00 Fair CLR 57.2 53.6 88% 29.87 0.0
08 23:35 S 5 10.00 Fair CLR 57.2 53.6 88% 29.88 0.0
08 23:15 S 3 10.00 Fair CLR 57.2 53.6 88% 29.87 0.0
08 22:55 S 6 10.00 Fair CLR 57.2 53.6 88% 29.87 0.0
08 22:35 SE 3 10.00 Fair CLR 59 53.6 82% 29.88 0.0
08 22:15 S 3 10.00 Fair CLR 59 53.6 82% 29.89 0.0
08 21:55 Calm 10.00 Fair CLR 60.8 53.6 77% 29.89 0.0
08 21:35 S 5 10.00 A Few Clouds FEW040 60.8 53.6 77% 29.89 0.0
08 21:15 S 5 10.00 Fair CLR 60.8 53.6 77% 29.89 0.0
08 20:55 S 5 10.00 Fair CLR 62.6 53.6 73% 29.89 0.0
08 20:35 S 6 10.00 Fair CLR 62.6 53.6 73% 29.88 0.0
08 20:15 S 7 10.00 Fair CLR 62.6 53.6 73% 29.87 0.0
08 19:55 S 7 10.00 Fair CLR 64.4 51.8 64% 29.87 0.0
08 19:35 S 7 10.00 Fair CLR 66.2 51.8 60% 29.87 0.0
08 19:15 S 8 10.00 Fair CLR 68 51.8 56% 29.87 0.0
08 18:55 S 10 10.00 Fair CLR 69.8 53.6 57% 29.87 0.0
08 18:35 S 9 10.00 Fair CLR 71.6 51.8 50% 29.87 0.0
08 18:10 Vrbl 7 10.00 Fair CLR 71.6 51.8 50% 29.87 0.0
08 17:55 S 8 10.00 Fair CLR 73.4 51.8 47% 29.88 0.0
08 17:35 S 12 G 18 10.00 Fair CLR 73.4 51.8 47% 29.88 0.0
08 17:15 S 10 G 16 10.00 Fair CLR 73.4 51.8 47% 29.88 0.0
08 16:55 S 12 10.00 Fair CLR 73.4 50 44% 29.88 0.0
08 16:35 S 10 G 17 10.00 Fair CLR 73.4 50 44% 29.89 0.0
08 16:15 S 12 10.00 Fair CLR 73.4 48.2 41% 29.9 0.0
08 15:55 S 9 G 17 10.00 Fair CLR 73.4 50 44% 29.89 0.0
08 15:35 S 9 10.00 Fair CLR 75.2 50 41% 78 29.89 0.0
08 15:15 S 13 10.00 Fair CLR 75.2 50 41% 78 29.9 0.0
08 14:55 SW 10 10.00 Fair CLR 73.4 48.2 41% 29.91 0.0
08 14:30 S 8 10.00 Fair CLR 73.4 48.2 41% 29.91 0.0
08 14:15 SE 8 G 14 10.00 Fair CLR 73.4 48.2 41% 29.92 0.0
08 13:55 E 7 G 13 10.00 Fair CLR 73.4 48.2 41% 29.93 0.0
08 13:35 S 9 10.00 Fair CLR 73.4 48.2 41% 29.94 0.0
08 13:15 S 9 10.00 Fair CLR 71.6 48.2 44% 29.95 0.0
08 12:55 Vrbl 6 G 14 10.00 Fair CLR 71.6 48.2 44% 29.96 0.0
08 12:35 Vrbl 5 G 12 10.00 Fair CLR 69.8 48.2 46% 29.97 0.0
08 12:15 Vrbl 6 10.00 Fair CLR 69.8 50 50% 29.99 0.0
08 11:55 Calm 10.00 Fair CLR 68 48.2 49% 30 0.0
08 11:35 SE 8 10.00 Fair CLR 68 46.4 46% 30.01 0.0
08 11:15 SE 9 10.00 Fair CLR 68 46.4 46% 30.03 0.0
08 10:55 S 9 10.00 Fair CLR 68 46.4 46% 30.03 0.0
08 10:35 E 6 G 13 10.00 Fair CLR 66.2 46.4 49% 30.03 0.0
08 10:15 SE 9 10.00 Fair CLR 66.2 46.4 49% 30.03 0.0
08 09:55 SE 8 10.00 Fair CLR 64.4 46.4 52% 30.04 0.0
08 09:35 SE 10 10.00 Fair CLR 64.4 50 60% 30.04 0.0
08 09:15 SE 9 10.00 Fair CLR 62.6 50 64% 30.04 0.0
08 08:55 SE 7 10.00 Fair CLR 60.8 50 68% 30.05 0.0
08 08:35 SE 6 10.00 Fair CLR 59 50 72% 30.06 0.0
08 08:15 SE 6 10.00 Fair CLR 55.4 51.8 88% 30.06 0.0
08 07:55 Calm 10.00 Fair CLR 51.8 51.8 100% 30.06 0.0
08 07:35 Calm 10.00 Fair CLR 51.8 51.8 100% 30.06 0.0
08 07:15 Calm 10.00 Fair CLR 50 50 100% 30.05 0.0
08 06:55 Calm 8.00 Fair CLR 48.2 48.2 100% 30.05 0.0
08 06:35 Calm 0.15 Fog OVC002 46.4 46.4 100% 30.04 0.0
08 06:15 Calm 0.15 Fog OVC002 46.4 46.4 100% 30.03 0.0
08 05:55 Calm 0.15 Fog OVC002 46.4 46.4 100% 30.03 0.0
08 05:35 Calm 0.25 Fog OVC002 46.4 46.4 100% 30.03 0.0
08 05:15 Calm 0.75 Fog/Mist OVC002 46.4 46.4 100% 30.02 0.0
08 04:55 Calm 0.75 Fog/Mist OVC002 46.4 46.4 100% 30.02 0.0
08 04:35 Calm 5.00 Fog/Mist OVC002 46.4 46.4 100% 30.01 0.0
08 04:15 Calm 9.00 Overcast OVC002 48.2 48.2 100% 30.01 0.0
08 03:55 Calm 4.00 Fog/Mist BKN002 48.2 48.2 100% 30.01 0.0
08 03:30 Calm 9.00 Mostly Cloudy BKN002 48.2 48.2 100% 30 0.0
08 03:15 Calm 9.00 Overcast OVC002 50 50 100% 30 0.0
08 02:55 Calm 5.00 Fog/Mist BKN002 50 50 100% 30.01 0.0
08 02:35 Calm 6.00 Fog/Mist OVC002 50 50 100% 30.01 0.0
08 02:15 Calm 7.00 Overcast OVC002 50 50 100% 30.01 0.0
08 01:55 Calm 10.00 Mostly Cloudy BKN002 50 50 100% 30.02 0.0
08 01:35 Calm 1.00 Fog/Mist CLR 50 50 100% 30.02 0.0
08 01:15 Calm 10.00 Fair CLR 51.8 51.8 100% 30.02 0.0
08 00:55 Calm 10.00 Fair CLR 51.8 51.8 100% 30.02 0.0
08 00:35 Calm 10.00 Fair CLR 51.8 51.8 100% 30.03 0.0
08 00:15 Calm 10.00 Fair CLR 51.8 51.8 100% 30.02 0.0
07 23:55 Calm 10.00 Fair CLR 51.8 51.8 100% 30.03 0.0
07 23:35 Calm 10.00 Fair CLR 51.8 51.8 100% 30.03 0.0
07 23:15 Calm 10.00 Fair CLR 53.6 51.8 94% 30.03 0.0
07 22:55 Calm 10.00 Fair CLR 53.6 51.8 94% 30.02 0.0
07 22:35 Calm 10.00 Fair CLR 53.6 53.6 100% 30.02 0.0
07 22:15 Calm 10.00 Fair CLR 55.4 53.6 94% 30.02 0.0
07 21:55 Calm 10.00 Fair CLR 55.4 51.8 88% 30.02 0.0
07 21:35 Calm 10.00 Fair CLR 55.4 53.6 94% 30.02 0.0
07 21:15 Calm 10.00 Fair CLR 57.2 53.6 88% 30.01 0.0
07 20:55 Calm 10.00 Fair CLR 57.2 51.8 82% 30.01 0.0
07 20:35 Calm 10.00 Fair CLR 59 51.8 77% 30 0.0
07 20:15 Calm 10.00 Fair CLR 59 50 72% 30 0.0
07 19:55 Calm 10.00 Fair CLR 60.8 48.2 63% 30 0.0
07 19:35 NW 5 10.00 Fair CLR 62.6 46.4 56% 29.99 0.0
07 19:15 NW 6 10.00 Fair CLR 64.4 46.4 52% 29.99 0.0
07 18:55 NW 6 10.00 Fair CLR 66.2 46.4 49% 29.98 0.0
07 18:35 NW 6 10.00 Fair CLR 66.2 46.4 49% 29.98 0.0
07 18:15 W 7 10.00 Fair CLR 66.2 44.6 46% 29.98 0.0
07 17:55 NW 7 10.00 Fair CLR 68 46.4 46% 29.98 0.0
07 17:35 W 5 G 12 10.00 Fair CLR 68 46.4 46% 29.98 0.0
07 17:15 NW 9 10.00 Fair CLR 68 46.4 46% 29.98 0.0
07 16:55 NW 5 10.00 Fair CLR 68 46.4 46% 29.98 0.0
07 16:30 Calm 10.00 Fair CLR 68 44.6 43% 29.98 0.0
07 16:15 NW 5 10.00 Fair CLR 68 46.4 46% 29.97 0.0
07 15:55 NW 6 G 12 10.00 Fair CLR 68 46.4 46% 29.98 0.0
07 15:35 Calm 10.00 Fair CLR 68 44.6 43% 29.99 0.0
07 15:15 W 8 10.00 Fair CLR 68 46.4 46% 29.99 0.0
07 14:55 N 8 10.00 Fair CLR 68 46.4 46% 30 0.0
07 14:35 Vrbl 6 G 14 10.00 Fair CLR 68 44.6 43% 30 0.0
07 14:15 N 12 10.00 Fair CLR 68 44.6 43% 30 0.0
07 13:55 N 9 G 16 10.00 Fair CLR 68 46.4 46% 30 0.0
07 13:35 N 9 10.00 Fair CLR 68 46.4 46% 30 0.0
07 13:15 N 10 10.00 Fair CLR 66.2 46.4 49% 30.01 0.0
07 12:55 N 12 10.00 Fair CLR 66.2 46.4 49% 30.01 0.0
07 12:35 Vrbl 5 G 13 10.00 Fair CLR 64.4 46.4 52% 30.02 0.0
07 12:15 Vrbl 7 10.00 Fair CLR 64.4 48.2 56% 30.02 0.0
07 11:55 N 8 10.00 Fair CLR 64.4 46.4 52% 30.03 0.0
07 11:35 N 8 G 14 10.00 Fair CLR 64.4 46.4 52% 30.04 0.0
07 11:15 NE 10 G 22 10.00 Fair CLR 62.6 46.4 56% 30.04 0.0
Date Time (cdt) Wind (mph) Vis. (mi.) Weather Sky Cond. Air Dwpt Max. Min. Relative Humidity Wind Chill (°F) Heat Index (°F) altimeter (in) sea level (mb) 1 hr 3 hr 6 hr
6 hour
Temperature (ºF) Pressure Precipitation (in)